Time;durP1;ratioP1;P1;durP2;ratioP2;P2;SDS_P1;SDS_P2;PMS_P1;PMS_P2;Temp;Humidity;BMP_temperature;BMP_pressure;BME280_temperature;BME280_humidity;BME280_pressure;Samples;Min_cycle;Max_cycle;Signal;HPM_P1;HPM_P2
2022/08/22 00:02:38;;;;;;;4.88;3.38;;;;;;;17.84;79.39;101617.38;10335860;28;20038;-65
2022/08/22 00:07:49;;;;;;;5.53;2.30;;;;;;;17.84;79.36;101607.25;10334833;28;20042;-66
2022/08/22 00:13:21;;;;;;;7.20;2.60;;;;;;;17.88;78.83;101619.44;10302438;28;20037;-66
2022/08/22 00:18:28;;;;;;;6.45;3.72;;;;;;;17.93;78.95;101615.97;10326579;28;20050;-66
2022/08/22 00:23:51;;;;;;;9.18;3.28;;;;;;;17.93;78.94;101617.91;10335042;28;20057;-65
2022/08/22 00:29:03;;;;;;;5.53;2.42;;;;;;;17.93;78.54;101620.63;10328701;28;20069;-65
2022/08/22 00:34:09;;;;;;;8.02;4.18;;;;;;;17.95;78.03;101618.50;10333680;28;20454;-66
2022/08/22 00:39:25;;;;;;;6.73;4.13;;;;;;;17.92;78.30;101619.81;10317562;28;20034;-66
2022/08/22 00:44:50;;;;;;;16.30;4.25;;;;;;;17.88;78.44;101607.63;10318522;28;20120;-66
2022/08/22 00:50:17;;;;;;;3.13;2.80;;;;;;;17.92;78.42;101616.22;10334915;28;20030;-66
2022/08/22 00:55:33;;;;;;;3.40;2.87;;;;;;;17.89;78.75;101609.28;10334566;28;20172;-66
2022/08/22 01:00:38;;;;;;;9.17;3.83;;;;;;;17.87;78.60;101617.75;10334908;28;20045;-66
2022/08/22 01:05:38;;;;;;;4.72;3.53;;;;;;;17.84;78.60;101618.22;10324890;28;20037;-65
2022/08/22 01:11:05;;;;;;;9.07;3.77;;;;;;;17.79;79.06;101615.31;10343009;28;20049;-65
2022/08/22 01:16:26;;;;;;;10.15;3.20;;;;;;;17.74;78.83;101611.53;10326143;28;20263;-64
2022/08/22 01:21:51;;;;;;;7.55;3.88;;;;;;;17.69;79.66;101614.16;10343104;28;20066;-67
2022/08/22 01:27:29;;;;;;;13.35;3.53;;;;;;;17.62;79.55;101614.22;10323432;28;20085;-66
2022/08/22 01:32:38;;;;;;;6.85;3.10;;;;;;;17.58;79.46;101615.72;10340234;28;20467;-66
2022/08/22 01:38:15;;;;;;;4.88;2.78;;;;;;;17.55;80.11;101624.38;10342016;28;20030;-65
2022/08/22 01:43:18;;;;;;;;;;;;;;;17.55;79.87;101619.78;10342565;28;20050;-66
2022/08/22 01:48:19;;;;;;;11.77;3.47;;;;;;;17.59;79.93;101623.72;10339667;28;19920;-66
2022/08/22 01:53:35;;;;;;;6.93;3.58;;;;;;;17.61;80.95;101631.69;10339081;28;20088;-66
2022/08/22 01:58:36;;;;;;;4.88;3.92;;;;;;;17.57;81.00;101617.63;10341029;28;20092;-66
2022/08/22 02:04:24;;;;;;;7.30;4.28;;;;;;;17.59;81.29;101620.16;10323703;28;20038;-66
2022/08/22 02:09:43;;;;;;;12.50;5.45;;;;;;;17.52;81.53;101622.13;10255187;29;20357;-67
2022/08/22 02:15:08;;;;;;;11.70;6.15;;;;;;;17.46;82.49;101620.28;10317317;28;20516;-66
2022/08/22 02:20:09;;;;;;;11.57;6.03;;;;;;;17.41;83.83;101616.31;10318489;28;20042;-66
2022/08/22 02:25:16;;;;;;;16.25;6.53;;;;;;;17.30;88.46;101600.63;10339553;28;20026;-66
2022/08/22 02:30:24;;;;;;;12.43;5.28;;;;;;;17.24;86.95;101604.28;10322299;28;20030;-65
2022/08/22 02:35:29;;;;;;;9.43;5.45;;;;;;;17.28;85.05;101607.38;10322170;28;20038;-66
2022/08/22 02:40:52;;;;;;;13.45;5.30;;;;;;;17.21;85.41;101593.75;10320500;28;20050;-66
2022/08/22 02:46:11;;;;;;;14.50;5.93;;;;;;;17.25;85.58;101614.16;10322353;28;20069;-66
2022/08/22 02:51:18;;;;;;;15.35;7.60;;;;;;;17.18;87.60;101610.63;10338224;28;20066;-66
2022/08/22 02:56:34;;;;;;;16.30;6.97;;;;;;;17.16;88.44;101596.31;10338252;28;20053;-66
2022/08/22 03:01:41;;;;;;;7.82;6.20;;;;;;;17.05;89.35;101592.44;10321217;28;20033;-66
2022/08/22 03:06:43;;;;;;;7.50;5.38;;;;;;;17.08;88.73;101591.16;10337966;28;20045;-66
2022/08/22 03:12:37;;;;;;;9.45;5.60;;;;;;;17.05;89.47;101584.22;10336696;28;20453;-66
2022/08/22 03:17:48;;;;;;;14.00;4.78;;;;;;;17.03;89.46;101571.81;10293064;28;20480;-67
2022/08/22 03:22:55;;;;;;;11.20;4.10;;;;;;;16.98;90.32;101571.69;10336932;28;20026;-66
2022/08/22 03:28:01;;;;;;;8.52;4.20;;;;;;;16.86;89.34;101555.13;10337372;28;20031;-66
2022/08/22 03:33:19;;;;;;;6.40;4.27;;;;;;;16.76;88.57;101560.28;10337153;28;20042;-66
2022/08/22 03:38:27;;;;;;;4.53;4.13;;;;;;;16.63;87.65;101567.47;10319776;28;20114;-66
2022/08/22 03:44:00;;;;;;;8.00;3.85;;;;;;;16.52;88.75;101565.44;10335238;28;20136;-66
2022/08/22 03:49:12;;;;;;;12.48;5.75;;;;;;;16.43;89.01;101558.56;10321133;28;20363;-66
2022/08/22 03:54:35;;;;;;;6.18;4.30;;;;;;;16.37;89.05;101565.78;10334662;28;20462;-65
2022/08/22 04:00:08;;;;;;;8.88;3.88;;;;;;;16.35;89.45;101559.69;10335568;28;20038;-65
2022/08/22 04:05:32;;;;;;;3.97;3.38;;;;;;;16.31;89.40;101566.66;10337145;28;20089;-66
2022/08/22 04:11:23;;;;;;;10.20;4.82;;;;;;;16.25;90.37;101575.72;10334536;28;20042;-66
2022/08/22 04:16:51;;;;;;;6.55;4.05;;;;;;;16.26;90.60;101583.69;10317790;28;20050;-65
2022/08/22 04:22:01;;;;;;;12.35;4.28;;;;;;;16.23;92.64;101580.56;10335960;28;20031;-66
2022/08/22 04:27:15;;;;;;;14.02;4.70;;;;;;;16.23;93.22;101589.59;10334615;28;20061;-64
2022/08/22 04:32:42;;;;;;;12.38;4.82;;;;;;;16.26;92.47;101593.78;10318050;28;20036;-66
2022/08/22 04:38:14;;;;;;;9.45;4.25;;;;;;;16.28;93.13;101592.50;10334426;28;20477;-66
2022/08/22 04:43:31;;;;;;;12.43;4.68;;;;;;;16.27;92.66;101596.31;10331944;28;20042;-66
2022/08/22 04:48:36;;;;;;;4.90;4.22;;;;;;;16.24;91.77;101593.16;10333098;28;20038;-66
2022/08/22 04:53:39;;;;;;;7.35;5.05;;;;;;;16.22;91.05;101603.47;10334803;28;20038;-66
2022/08/22 04:58:57;;;;;;;8.35;5.20;;;;;;;16.28;91.79;101608.06;10333451;28;20057;-65
2022/08/22 05:04:01;;;;;;;10.57;5.15;;;;;;;16.32;91.04;101614.78;10319275;28;20034;-65
2022/08/22 05:09:05;;;;;;;13.57;4.60;;;;;;;16.27;90.43;101614.59;10331731;28;20034;-66
2022/08/22 05:14:36;;;;;;;8.35;5.05;;;;;;;16.19;90.20;101623.88;10331851;28;20030;-66
2022/08/22 05:19:38;;;;;;;7.60;4.82;;;;;;;16.14;90.47;101620.13;10335083;28;20045;-66
2022/08/22 05:24:41;;;;;;;9.63;5.13;;;;;;;16.12;92.40;101609.41;10317128;28;20026;-66
2022/08/22 05:29:42;;;;;;;6.72;5.32;;;;;;;16.20;93.05;101620.09;10316856;28;20030;-66
2022/08/22 05:34:42;;;;;;;11.57;5.20;;;;;;;16.17;91.92;101616.94;10316089;28;20034;-66
2022/08/22 05:39:45;;;;;;;12.63;5.35;;;;;;;16.08;91.65;101615.50;10315861;28;20050;-66
2022/08/22 05:44:46;;;;;;;12.20;4.25;;;;;;;16.15;90.89;101627.28;10315617;28;20034;-67
2022/08/22 05:50:08;;;;;;;19.13;5.97;;;;;;;16.23;91.05;101619.66;10337021;28;20026;-65
2022/08/22 05:55:23;;;;;;;14.68;4.75;;;;;;;16.41;91.65;101632.59;10340390;28;20466;-67
2022/08/22 06:00:24;;;;;;;11.73;5.20;;;;;;;16.77;90.88;101628.41;10341077;28;20041;-66
2022/08/22 06:05:30;;;;;;;7.38;4.95;;;;;;;16.70;90.26;101622.97;10321735;28;20521;-66
2022/08/22 06:10:53;;;;;;;16.48;5.07;;;;;;;16.88;90.58;101638.66;10338815;28;20031;-66
2022/08/22 06:16:05;;;;;;;10.32;3.97;;;;;;;17.47;91.50;101638.38;10338241;28;20034;-66
2022/08/22 06:21:08;;;;;;;12.73;4.60;;;;;;;18.36;90.60;101628.75;10339755;28;20026;-66
2022/08/22 06:26:10;;;;;;;11.40;4.05;;;;;;;19.44;90.05;101644.19;10338095;28;20121;-66
2022/08/22 06:31:16;;;;;;;5.05;4.65;;;;;;;20.20;89.99;101628.56;10322236;28;20041;-67
2022/08/22 06:36:30;;;;;;;10.13;4.63;;;;;;;20.78;87.40;101631.34;10338276;28;20042;-68
2022/08/22 06:41:33;;;;;;;9.57;4.35;;;;;;;21.23;85.88;101636.81;10339038;28;20056;-69
2022/08/22 06:46:35;;;;;;;7.90;3.65;;;;;;;21.62;84.61;101628.59;10336973;28;20432;-67
2022/08/22 06:51:35;;;;;;;9.10;4.85;;;;;;;22.07;82.21;101624.78;10305298;28;20034;-65
2022/08/22 06:56:41;;;;;;;12.02;5.07;;;;;;;22.62;80.85;101612.75;10337243;28;20117;-66
2022/08/22 07:01:50;;;;;;;6.63;4.60;;;;;;;22.87;78.38;101597.50;10336843;28;20054;-66
2022/08/22 07:06:51;;;;;;;7.78;4.68;;;;;;;23.23;77.25;101604.19;10336935;28;20100;-66
2022/08/22 07:11:53;;;;;;;6.03;5.03;;;;;;;23.84;74.91;101598.22;10337028;28;20080;-67
2022/08/22 07:16:59;;;;;;;8.90;4.80;;;;;;;24.03;69.30;101590.28;10320566;28;20393;-66
2022/08/22 07:22:10;;;;;;;5.03;4.50;;;;;;;24.09;67.56;101584.50;10335353;28;20088;-66
2022/08/22 07:27:36;;;;;;;10.93;5.32;;;;;;;24.34;66.76;101596.72;10337207;28;20401;-66
2022/08/22 07:32:45;;;;;;;4.88;4.38;;;;;;;24.57;66.85;101587.13;10336184;28;20369;-66
2022/08/22 07:38:00;;;;;;;15.45;11.63;;;;;;;24.98;67.00;101593.53;10334387;28;20433;-66
2022/08/22 07:43:03;;;;;;;6.15;5.28;;;;;;;25.20;63.49;101575.78;10334538;28;20145;-67
2022/08/22 07:48:48;;;;;;;8.02;4.38;;;;;;;25.78;65.96;101594.78;10335807;28;20026;-66
2022/08/22 07:53:55;;;;;;;8.52;5.28;;;;;;;26.10;62.89;101592.47;10307669;28;20474;-66
2022/08/22 07:58:59;;;;;;;8.60;4.65;;;;;;;26.50;60.33;101587.81;10304026;28;20030;-66
2022/08/22 08:04:02;;;;;;;7.15;4.70;;;;;;;27.12;61.60;101596.47;10333923;28;20065;-66
2022/08/22 08:09:03;;;;;;;5.28;4.38;;;;;;;27.12;54.83;101586.22;10333475;28;20037;-66
2022/08/22 08:14:04;;;;;;;7.28;3.72;;;;;;;27.49;59.45;101584.72;10318094;28;20374;-67
2022/08/22 08:19:05;;;;;;;10.48;4.25;;;;;;;27.80;54.97;101581.63;10318378;28;20019;-67
2022/08/22 08:24:06;;;;;;;4.03;3.63;;;;;;;27.75;55.70;101584.44;10333986;28;20113;-67
2022/08/22 08:29:07;;;;;;;3.80;3.22;;;;;;;27.98;54.63;101580.84;10317384;28;20036;-66
2022/08/22 08:34:14;;;;;;;4.13;3.83;;;;;;;28.56;53.71;101590.06;10333636;28;20031;-67
2022/08/22 08:39:32;;;;;;;4.15;3.75;;;;;;;28.39;51.73;101574.69;10331893;28;20097;-67
2022/08/22 08:44:51;;;;;;;9.57;4.15;;;;;;;28.71;54.90;101567.53;10316769;28;20038;-67
2022/08/22 08:50:00;;;;;;;12.85;3.65;;;;;;;29.33;53.76;101561.75;10333417;28;20045;-68
2022/08/22 08:55:28;;;;;;;8.57;4.72;;;;;;;29.28;50.54;101559.03;10332704;28;20026;-67
2022/08/22 09:01:10;;;;;;;5.93;3.78;;;;;;;29.23;46.34;101554.41;10333336;28;20057;-65
2022/08/22 09:06:32;;;;;;;4.93;3.80;;;;;;;29.37;49.00;101565.56;10334066;28;20039;-65
2022/08/22 09:11:57;;;;;;;5.95;5.22;;;;;;;29.42;42.70;101560.72;10333405;28;20165;-65
2022/08/22 09:17:12;;;;;;;15.45;4.57;;;;;;;29.19;47.00;101565.31;10333884;28;20385;-66
2022/08/22 09:22:50;;;;;;;8.10;5.07;;;;;;;29.29;41.94;101555.97;10335453;28;20034;-66
2022/08/22 09:28:04;;;;;;;3.55;3.13;;;;;;;28.79;43.72;101552.91;10341792;28;20030;-67
2022/08/22 09:33:11;;;;;;;4.47;3.08;;;;;;;29.15;45.13;101547.53;10323711;28;20030;-66
2022/08/22 09:38:44;;;;;;;4.85;3.28;;;;;;;29.14;42.53;101543.13;10324769;28;20063;-68
2022/08/22 09:43:48;;;;;;;11.43;3.85;;;;;;;29.24;42.02;101532.91;10342052;28;20510;-67
2022/08/22 09:48:58;;;;;;;4.13;2.97;;;;;;;29.66;43.36;101527.03;10340131;28;20454;-66
2022/08/22 09:54:02;;;;;;;3.00;2.80;;;;;;;29.79;39.86;101521.75;10338677;28;20034;-66
2022/08/22 09:59:35;;;;;;;11.00;3.22;;;;;;;29.58;40.40;101512.94;10340016;28;20038;-66
2022/08/22 10:04:35;;;;;;;8.98;3.42;;;;;;;30.20;39.73;101521.69;10291765;28;20050;-67
2022/08/22 10:09:49;;;;;;;4.72;3.53;;;;;;;29.96;40.90;101521.09;10339468;28;20360;-63
2022/08/22 10:15:04;;;;;;;13.70;3.92;;;;;;;30.63;41.75;101518.38;10339534;28;20085;-63
2022/08/22 10:20:23;;;;;;;3.90;3.17;;;;;;;31.08;38.04;101507.19;10338659;28;20038;-66
2022/08/22 10:25:32;;;;;;;10.45;3.33;;;;;;;31.21;38.91;101513.81;10340302;28;20367;-63
2022/08/22 10:30:54;;;;;;;4.38;2.80;;;;;;;30.27;40.76;101508.09;10337316;28;20033;-65
2022/08/22 10:36:02;;;;;;;11.75;3.72;;;;;;;30.70;40.02;101510.41;10337937;28;20088;-65
2022/08/22 10:41:21;;;;;;;5.45;4.20;;;;;;;31.72;38.49;101517.97;10338255;28;20395;-63
2022/08/22 10:46:38;;;;;;;7.13;3.03;;;;;;;32.22;38.88;101509.13;10339194;28;20057;-65
2022/08/22 10:51:52;;;;;;;9.50;3.60;;;;;;;32.30;39.82;101510.31;10322522;28;20038;-63
2022/08/22 10:57:13;;;;;;;6.15;3.72;;;;;;;31.67;38.79;101518.94;10321346;28;20034;-63
2022/08/22 11:02:22;;;;;;;11.52;3.65;;;;;;;31.49;37.36;101506.88;10337881;28;20451;-66
2022/08/22 11:07:45;;;;;;;17.58;3.78;;;;;;;31.03;37.45;101508.13;10337320;28;20445;-67
2022/08/22 11:13:16;;;;;;;4.28;2.92;;;;;;;31.42;36.98;101514.09;10335675;28;20458;-66
2022/08/22 11:18:39;;;;;;;2.80;2.40;;;;;;;29.62;41.57;101500.06;10311450;28;20047;-66
2022/08/22 11:24:05;;;;;;;4.80;2.50;;;;;;;28.01;40.50;101502.28;10269089;28;20046;-67
2022/08/22 11:29:30;;;;;;;6.28;2.70;;;;;;;29.92;37.78;101497.72;10334995;28;20034;-65
2022/08/22 11:34:45;;;;;;;2.47;2.38;;;;;;;29.42;38.89;101490.13;10334489;28;20386;-67
2022/08/22 11:39:51;;;;;;;8.13;2.70;;;;;;;30.48;38.99;101488.88;10336326;28;20093;-67
2022/08/22 11:44:53;;;;;;;3.23;2.43;;;;;;;30.65;37.27;101478.94;10335955;28;20369;-67
2022/08/22 11:49:54;;;;;;;3.30;3.00;;;;;;;30.57;35.60;101492.56;10302652;28;20034;-67
2022/08/22 11:55:14;;;;;;;8.15;3.78;;;;;;;30.49;36.67;101489.69;10335825;28;20454;-67
2022/08/22 12:00:46;;;;;;;8.25;2.80;;;;;;;31.03;37.07;101482.13;10318468;28;20062;-67
2022/08/22 12:05:58;;;;;;;3.15;2.50;;;;;;;31.50;37.00;101485.31;10318219;28;20031;-67
2022/08/22 12:11:13;;;;;;;22.30;3.20;;;;;;;32.00;37.39;101482.09;10334163;28;20034;-67
2022/08/22 12:16:25;;;;;;;6.22;2.45;;;;;;;29.93;37.69;101488.19;10302107;28;20117;-67
2022/08/22 12:21:33;;;;;;;2.42;2.33;;;;;;;31.13;37.93;101473.44;10333742;28;20030;-67
2022/08/22 12:26:49;;;;;;;8.25;3.70;;;;;;;31.42;34.54;101472.91;10317633;28;20049;-66
2022/08/22 12:32:13;;;;;;;;;;;;;;;31.44;34.64;101464.22;10317703;28;20026;-66
2022/08/22 12:37:24;;;;;;;5.13;3.10;;;;;;;31.42;35.73;101456.13;10317162;28;19922;-67
2022/08/22 12:42:50;;;;;;;3.67;3.38;;;;;;;31.80;35.05;101461.13;10317197;28;20081;-67
2022/08/22 12:48:18;;;;;;;6.00;3.70;;;;;;;32.03;34.08;101449.81;10332477;28;20374;-67
2022/08/22 12:53:37;;;;;;;9.18;3.00;;;;;;;31.74;36.70;101440.03;10332510;28;20027;-68
2022/08/22 12:58:43;;;;;;;3.88;3.10;;;;;;;31.99;33.50;101435.63;10330937;28;20038;-67
2022/08/22 13:03:49;;;;;;;8.00;4.18;;;;;;;31.88;36.95;101434.31;10332715;28;20034;-67
2022/08/22 13:08:49;;;;;;;13.60;3.10;;;;;;;31.87;37.86;101427.03;10314186;28;20026;-67
2022/08/22 13:13:54;;;;;;;4.35;2.30;;;;;;;32.26;36.07;101416.81;10314660;28;20077;-64
2022/08/22 13:18:59;;;;;;;6.30;3.57;;;;;;;31.63;35.03;101419.94;10330200;28;20034;-71
2022/08/22 13:24:04;;;;;;;6.70;3.00;;;;;;;30.73;36.46;101413.88;10299878;28;20335;-63
2022/08/22 13:29:17;;;;;;;3.42;3.03;;;;;;;29.39;37.95;101418.22;10330069;28;20386;-68
2022/08/22 13:34:20;;;;;;;3.97;3.53;;;;;;;30.06;37.18;101411.94;10331704;28;20057;-65
2022/08/22 13:39:24;;;;;;;4.68;3.97;;;;;;;30.08;38.70;101410.47;10286551;28;1287593;-65
2022/08/22 13:44:44;;;;;;;11.30;4.00;;;;;;;30.29;39.59;101407.22;10299713;28;20058;-70
2022/08/22 13:49:53;;;;;;;4.05;2.90;;;;;;;31.30;39.73;101385.94;10314404;28;20046;-66
2022/08/22 13:55:15;;;;;;;7.72;2.95;;;;;;;32.16;40.44;101396.41;10333093;28;20121;-64
2022/08/22 14:00:18;;;;;;;2.00;1.90;;;;;;;31.26;36.56;101388.56;10315821;28;20030;-72
2022/08/22 14:05:30;;;;;;;4.57;3.08;;;;;;;30.58;37.34;101389.94;10315520;28;20041;-71
2022/08/22 14:10:32;;;;;;;7.47;3.58;;;;;;;30.59;38.82;101384.03;10336689;28;20117;-71
2022/08/22 14:15:33;;;;;;;2.45;2.13;;;;;;;30.96;39.31;101384.72;10305564;28;20096;-72
2022/08/22 14:20:34;;;;;;;4.68;3.10;;;;;;;30.78;36.55;101380.19;10305543;28;20493;-68
2022/08/22 14:25:36;;;;;;;2.53;1.92;;;;;;;29.91;38.17;101378.81;10339638;28;20073;-67
2022/08/22 14:30:50;;;;;;;12.13;4.03;;;;;;;29.19;39.92;101374.81;10306540;28;20027;-71
2022/08/22 14:35:54;;;;;;;7.18;3.22;;;;;;;29.73;38.85;101366.66;10323737;28;20473;-67
2022/08/22 14:41:00;;;;;;;3.40;2.95;;;;;;;29.79;37.83;101363.44;10289557;28;20051;-67
2022/08/22 14:46:03;;;;;;;5.82;3.42;;;;;;;30.25;36.88;101359.53;10320647;28;20034;-68
2022/08/22 14:51:08;;;;;;;4.35;3.17;;;;;;;30.45;35.46;101365.72;10304323;28;20046;-67
2022/08/22 14:56:10;;;;;;;4.87;3.20;;;;;;;30.56;39.54;101358.69;10321246;28;20036;-68
2022/08/22 15:01:13;;;;;;;4.88;2.45;;;;;;;30.17;36.99;101357.47;10337427;28;20382;-68
2022/08/22 15:06:27;;;;;;;4.20;2.72;;;;;;;29.38;37.60;101347.63;10319573;28;20039;-68
2022/08/22 15:11:31;;;;;;;8.57;3.13;;;;;;;28.29;39.00;101344.47;10319185;28;20026;-68
2022/08/22 15:16:37;;;;;;;2.90;2.47;;;;;;;28.56;39.85;101337.34;10337015;28;20378;-68
2022/08/22 15:21:37;;;;;;;6.57;2.83;;;;;;;28.12;38.22;101338.69;10303406;28;20036;-67
2022/08/22 15:26:40;;;;;;;4.88;2.63;;;;;;;27.36;37.71;101330.38;10336950;28;20039;-68
2022/08/22 15:31:40;;;;;;;3.40;3.10;;;;;;;26.81;39.28;101327.22;10317624;28;20026;-67
2022/08/22 15:37:22;;;;;;;4.22;2.35;;;;;;;26.60;39.97;101328.56;10318513;28;20030;-68
2022/08/22 15:42:29;;;;;;;3.70;2.75;;;;;;;26.39;40.17;101316.84;10318748;28;20108;-67
2022/08/22 15:47:36;;;;;;;7.00;3.15;;;;;;;26.31;40.67;101320.25;10335025;28;20390;-68
2022/08/22 15:53:15;;;;;;;9.02;2.97;;;;;;;26.13;41.75;101314.31;10335873;28;20045;-67
2022/08/22 15:58:21;;;;;;;5.95;2.80;;;;;;;25.90;42.66;101303.97;10317781;28;20046;-67
2022/08/22 16:03:24;;;;;;;4.82;3.42;;;;;;;25.83;42.53;101309.03;10317179;28;20431;-67
2022/08/22 16:08:28;;;;;;;3.38;3.03;;;;;;;25.75;42.77;101299.34;10333424;28;20038;-68
2022/08/22 16:13:29;;;;;;;8.98;3.55;;;;;;;25.71;43.08;101296.31;10336166;28;20038;-67
2022/08/22 16:18:35;;;;;;;4.50;3.08;;;;;;;25.66;43.49;101299.13;10335917;28;20441;-67
2022/08/22 16:24:02;;;;;;;5.93;3.65;;;;;;;25.53;43.99;101294.25;10336819;28;20034;-67
2022/08/22 16:29:16;;;;;;;3.00;2.78;;;;;;;25.54;43.77;101293.13;10317013;28;20050;-68
2022/08/22 16:34:16;;;;;;;3.67;2.78;;;;;;;25.53;43.84;101305.34;10337481;28;20034;-67
2022/08/22 16:39:20;;;;;;;5.20;3.20;;;;;;;25.32;44.38;101299.09;10333697;28;20038;-67
2022/08/22 16:44:29;;;;;;;10.18;3.50;;;;;;;25.35;44.68;101300.47;10335475;28;20030;-68
2022/08/22 16:49:31;;;;;;;3.58;3.28;;;;;;;25.28;44.69;101290.53;10334599;28;20069;-68
2022/08/22 16:54:43;;;;;;;7.82;3.25;;;;;;;25.16;45.26;101280.91;10302530;28;20429;-66
2022/08/22 17:00:11;;;;;;;3.53;3.22;;;;;;;25.09;45.06;101295.03;10302923;28;20036;-66
2022/08/22 17:05:46;;;;;;;5.30;4.00;;;;;;;25.04;45.58;101282.03;10306712;28;20066;-68
2022/08/22 17:10:58;;;;;;;5.47;3.08;;;;;;;24.93;45.59;101283.22;10321891;28;20451;-68
2022/08/22 17:16:23;;;;;;;12.10;3.35;;;;;;;24.91;45.43;101285.44;10302084;28;20053;-67
2022/08/22 17:21:37;;;;;;;5.28;3.40;;;;;;;24.82;45.70;101292.66;10317963;28;20038;-68
2022/08/22 17:27:24;;;;;;;4.97;3.10;;;;;;;24.77;45.68;101292.72;10286266;28;20097;-68
2022/08/22 17:32:33;;;;;;;6.40;3.65;;;;;;;24.67;46.08;101287.22;10181064;28;20048;-68
2022/08/22 17:37:47;;;;;;;6.28;2.80;;;;;;;24.58;46.01;101295.28;10300729;28;20050;-67
2022/08/22 17:43:11;;;;;;;6.40;3.22;;;;;;;24.54;46.04;101295.00;10322019;28;20132;-67
2022/08/22 17:48:14;;;;;;;6.80;3.72;;;;;;;24.46;46.32;101291.97;10339838;28;20034;-68
2022/08/22 17:53:35;;;;;;;4.70;2.92;;;;;;;24.34;46.37;101295.00;10340363;28;20454;-67
2022/08/22 17:59:00;;;;;;;8.10;3.33;;;;;;;24.25;45.91;101289.25;10339233;28;20066;-68
2022/08/22 18:04:00;;;;;;;4.20;2.75;;;;;;;24.13;46.13;101297.84;10331354;28;20038;-68
2022/08/22 18:09:06;;;;;;;5.43;2.05;;;;;;;23.99;46.43;101296.72;10339094;28;20062;-68
2022/08/22 18:14:18;;;;;;;3.35;2.75;;;;;;;23.86;47.06;101303.66;10340371;28;20042;-69
2022/08/22 18:19:44;;;;;;;8.13;3.13;;;;;;;23.74;47.19;101302.25;10339305;28;20417;-68
2022/08/22 18:24:44;;;;;;;4.68;2.85;;;;;;;23.59;47.45;101305.84;10339539;28;20113;-69
2022/08/22 18:29:48;;;;;;;4.05;3.45;;;;;;;23.44;48.04;101304.69;10340063;28;20484;-68
2022/08/22 18:34:53;;;;;;;6.78;3.50;;;;;;;23.34;48.04;101309.38;10337546;28;20034;-68
2022/08/22 18:40:05;;;;;;;10.93;3.17;;;;;;;23.20;48.63;101317.38;10338337;28;20094;-66
2022/08/22 18:45:07;;;;;;;8.93;3.72;;;;;;;23.05;50.36;101317.31;10338038;28;20415;-65
2022/08/22 18:50:33;;;;;;;6.18;3.78;;;;;;;22.93;50.17;101329.41;10320880;28;20040;-66
2022/08/22 18:55:54;;;;;;;4.37;3.50;;;;;;;22.81;50.25;101331.53;10320905;28;20031;-65
2022/08/22 19:01:19;;;;;;;3.72;3.30;;;;;;;22.65;50.50;101332.56;10305239;28;20037;-66
2022/08/22 19:06:41;;;;;;;6.47;3.15;;;;;;;22.56;51.26;101335.00;10337203;28;20038;-64
2022/08/22 19:11:48;;;;;;;10.75;3.38;;;;;;;22.52;52.05;101347.66;10337942;28;20084;-64
2022/08/22 19:17:03;;;;;;;7.82;4.38;;;;;;;22.47;52.44;101351.25;10337097;28;20042;-66
2022/08/22 19:22:19;;;;;;;8.57;4.20;;;;;;;22.39;52.93;101346.19;10337318;28;20038;-65
2022/08/22 19:27:22;;;;;;;8.35;4.55;;;;;;;22.22;52.97;101348.31;10337411;28;20026;-64
2022/08/22 19:32:42;;;;;;;8.15;3.80;;;;;;;22.03;54.76;101337.63;10336155;28;20035;-65
2022/08/22 19:37:59;;;;;;;5.93;4.35;;;;;;;21.93;57.33;101347.75;10335925;28;20034;-66
2022/08/22 19:42:59;;;;;;;7.35;3.35;;;;;;;21.85;57.72;101338.03;10310581;28;20474;-66
2022/08/22 19:48:05;;;;;;;6.30;3.92;;;;;;;21.81;57.39;101342.41;10319829;28;20045;-67
2022/08/22 19:53:44;;;;;;;6.15;3.90;;;;;;;21.62;59.67;101339.19;10318597;28;20029;-68
2022/08/22 19:59:14;;;;;;;7.82;3.15;;;;;;;21.52;59.25;101345.44;10323069;28;20457;-67
2022/08/22 20:04:35;;;;;;;21.98;4.00;;;;;;;21.45;59.04;101350.34;10334378;28;20130;-64
2022/08/22 20:10:03;;;;;;;7.18;3.83;;;;;;;21.35;59.43;101353.81;10333737;28;20022;-67
2022/08/22 20:15:17;;;;;;;6.40;3.80;;;;;;;21.26;58.64;101349.00;10335934;28;20339;-66
2022/08/22 20:20:18;;;;;;;14.95;4.72;;;;;;;21.12;60.09;101346.63;10318376;28;20030;-65
2022/08/22 20:25:48;;;;;;;8.75;3.90;;;;;;;21.01;60.89;101350.34;10334886;28;20442;-68
2022/08/22 20:30:48;;;;;;;9.52;4.20;;;;;;;20.92;61.85;101354.63;10334965;28;20100;-67
2022/08/22 20:35:54;;;;;;;6.32;4.18;;;;;;;20.86;62.70;101347.38;10317065;28;20100;-66
2022/08/22 20:41:15;;;;;;;5.93;3.90;;;;;;;20.97;65.39;101356.63;10316394;28;20385;-66
2022/08/22 20:46:42;;;;;;;4.93;4.38;;;;;;;21.03;66.58;101341.84;10334228;28;20271;-67
2022/08/22 20:51:58;;;;;;;10.47;4.87;;;;;;;21.06;66.79;101339.41;10320077;28;20026;-66
2022/08/22 20:57:16;;;;;;;12.53;4.60;;;;;;;21.03;67.80;101334.41;10319609;28;20295;-67
2022/08/22 21:02:21;;;;;;;4.00;3.70;;;;;;;20.99;67.32;101341.50;10335967;28;20358;-66
2022/08/22 21:07:30;;;;;;;8.63;4.50;;;;;;;20.80;69.63;101329.13;10334326;28;20030;-67
2022/08/22 21:12:30;;;;;;;7.03;3.67;;;;;;;20.66;68.60;101335.00;10335165;28;20435;-66
2022/08/22 21:17:32;;;;;;;9.95;4.45;;;;;;;20.54;69.21;101337.03;10318915;28;20041;-67
2022/08/22 21:22:33;;;;;;;5.78;4.60;;;;;;;20.41;70.19;101329.94;10324226;28;20373;-66
2022/08/22 21:27:34;;;;;;;8.27;4.20;;;;;;;20.30;70.44;101330.06;10341736;28;20038;-66
2022/08/22 21:32:40;;;;;;;13.73;4.80;;;;;;;20.18;70.64;101336.47;10324034;28;20034;-67
2022/08/22 21:37:43;;;;;;;6.18;4.47;;;;;;;20.07;71.50;101328.31;10308633;28;20069;-67
2022/08/22 21:42:56;;;;;;;6.93;4.93;;;;;;;19.98;70.24;101323.25;10314885;28;20050;-68
2022/08/22 21:47:57;;;;;;;5.50;4.95;;;;;;;19.93;70.49;101338.81;10340689;28;20369;-68
2022/08/22 21:53:06;;;;;;;7.30;4.50;;;;;;;19.85;70.16;101345.56;10339708;28;20026;-69
2022/08/22 21:58:13;;;;;;;11.70;4.70;;;;;;;19.77;68.81;101351.47;10338783;28;20456;-67
2022/08/22 22:03:14;;;;;;;7.20;4.78;;;;;;;19.65;73.79;101346.03;10339656;28;20466;-69
2022/08/22 22:08:15;;;;;;;7.35;5.50;;;;;;;19.57;70.04;101346.41;10338965;28;20109;-67
2022/08/22 22:13:15;;;;;;;25.30;5.90;;;;;;;19.52;69.34;101347.13;10339017;28;20473;-67
2022/08/22 22:18:23;;;;;;;8.98;5.03;;;;;;;19.43;69.30;101343.13;10338370;28;20022;-66
2022/08/22 22:23:24;;;;;;;14.13;5.72;;;;;;;19.40;68.20;101349.13;10341076;28;20034;-67
2022/08/22 22:28:29;;;;;;;7.80;5.45;;;;;;;19.34;68.75;101339.13;10321397;28;20454;-67
2022/08/22 22:33:31;;;;;;;11.00;6.15;;;;;;;19.31;74.55;101347.84;10305594;28;20026;-67
2022/08/22 22:38:32;;;;;;;6.07;4.57;;;;;;;19.33;72.74;101333.84;10337746;28;20030;-68
2022/08/22 22:43:32;;;;;;;7.40;4.55;;;;;;;19.36;71.27;101347.91;10340066;28;20042;-67
2022/08/22 22:48:33;;;;;;;6.07;4.88;;;;;;;19.32;71.29;101343.19;10338297;28;20042;-67
2022/08/22 22:53:33;;;;;;;8.43;4.93;;;;;;;19.32;69.42;101354.16;10320898;28;20038;-67
2022/08/22 22:58:34;;;;;;;17.83;5.78;;;;;;;19.25;69.19;101352.41;10320835;28;20034;-67
2022/08/22 23:03:34;;;;;;;7.35;5.00;;;;;;;19.24;68.31;101369.97;10338801;28;20042;-67
2022/08/22 23:08:35;;;;;;;7.65;5.10;;;;;;;19.13;68.07;101372.72;10320601;28;20099;-66
2022/08/22 23:13:35;;;;;;;6.20;4.97;;;;;;;19.01;67.77;101362.59;10337919;28;20335;-67
2022/08/22 23:18:35;;;;;;;10.30;6.72;;;;;;;18.95;67.24;101369.09;10338967;28;20092;-66
2022/08/22 23:23:36;;;;;;;9.20;4.88;;;;;;;18.87;67.49;101372.19;10321789;28;20117;-69
2022/08/22 23:28:36;;;;;;;12.02;5.50;;;;;;;18.87;67.33;101363.13;10336245;28;20403;-67
2022/08/22 23:33:37;;;;;;;10.40;5.32;;;;;;;18.94;68.07;101361.91;10318639;28;20034;-67
2022/08/22 23:38:37;;;;;;;7.28;4.50;;;;;;;18.91;66.99;101370.63;10320097;28;20027;-67
2022/08/22 23:43:42;;;;;;;7.30;4.63;;;;;;;18.86;66.28;101372.41;10336784;28;20054;-67
2022/08/22 23:48:43;;;;;;;7.88;4.30;;;;;;;18.77;66.32;101369.22;10320156;28;20057;-67